sensor_id;sensor_type;location;lat;lon;timestamp;temperature;humidity
75022;SHT31;63583;49.976;20.182;2023-11-21T00:01:03;8.25;95.32
75022;SHT31;63583;49.976;20.182;2023-11-21T00:03:39;8.25;94.81
75022;SHT31;63583;49.976;20.182;2023-11-21T00:06:06;8.19;95.00
75022;SHT31;63583;49.976;20.182;2023-11-21T00:08:36;8.15;95.55
75022;SHT31;63583;49.976;20.182;2023-11-21T00:11:02;8.21;95.25
75022;SHT31;63583;49.976;20.182;2023-11-21T00:13:32;8.10;95.82
75022;SHT31;63583;49.976;20.182;2023-11-21T00:15:58;8.21;95.58
75022;SHT31;63583;49.976;20.182;2023-11-21T00:18:24;8.19;95.48
75022;SHT31;63583;49.976;20.182;2023-11-21T00:20:49;8.17;95.78
75022;SHT31;63583;49.976;20.182;2023-11-21T00:23:15;8.13;96.04
75022;SHT31;63583;49.976;20.182;2023-11-21T00:25:41;8.15;96.39
75022;SHT31;63583;49.976;20.182;2023-11-21T00:28:07;8.17;96.10
75022;SHT31;63583;49.976;20.182;2023-11-21T00:30:32;8.07;96.31
75022;SHT31;63583;49.976;20.182;2023-11-21T00:32:59;8.23;96.21
75022;SHT31;63583;49.976;20.182;2023-11-21T00:35:24;8.09;96.61
75022;SHT31;63583;49.976;20.182;2023-11-21T00:37:50;8.03;96.99
75022;SHT31;63583;49.976;20.182;2023-11-21T00:40:16;7.92;97.48
75022;SHT31;63583;49.976;20.182;2023-11-21T00:42:45;8.01;97.45
75022;SHT31;63583;49.976;20.182;2023-11-21T00:45:12;8.01;97.61
75022;SHT31;63583;49.976;20.182;2023-11-21T00:47:38;8.05;97.38
75022;SHT31;63583;49.976;20.182;2023-11-21T00:50:04;7.95;97.97
75022;SHT31;63583;49.976;20.182;2023-11-21T00:52:32;7.94;98.17
75022;SHT31;63583;49.976;20.182;2023-11-21T00:54:58;7.94;98.24
75022;SHT31;63583;49.976;20.182;2023-11-21T00:57:26;7.91;98.40
75022;SHT31;63583;49.976;20.182;2023-11-21T00:59:52;7.98;98.26
75022;SHT31;63583;49.976;20.182;2023-11-21T01:02:18;7.94;98.37
75022;SHT31;63583;49.976;20.182;2023-11-21T01:04:44;7.89;98.51
75022;SHT31;63583;49.976;20.182;2023-11-21T01:07:09;7.98;98.32
75022;SHT31;63583;49.976;20.182;2023-11-21T01:09:35;7.98;98.09
75022;SHT31;63583;49.976;20.182;2023-11-21T01:12:01;8.01;98.08
75022;SHT31;63583;49.976;20.182;2023-11-21T01:14:27;7.98;98.24
75022;SHT31;63583;49.976;20.182;2023-11-21T01:16:53;7.95;98.37
75022;SHT31;63583;49.976;20.182;2023-11-21T01:19:19;8.01;98.18
75022;SHT31;63583;49.976;20.182;2023-11-21T01:21:45;8.03;97.82
75022;SHT31;63583;49.976;20.182;2023-11-21T01:24:11;8.06;97.84
75022;SHT31;63583;49.976;20.182;2023-11-21T01:26:37;8.02;97.76
75022;SHT31;63583;49.976;20.182;2023-11-21T01:29:02;8.10;97.60
75022;SHT31;63583;49.976;20.182;2023-11-21T01:31:28;8.09;97.73
75022;SHT31;63583;49.976;20.182;2023-11-21T01:33:55;8.06;97.57
75022;SHT31;63583;49.976;20.182;2023-11-21T01:36:22;8.02;97.64
75022;SHT31;63583;49.976;20.182;2023-11-21T01:38:47;8.07;97.57
75022;SHT31;63583;49.976;20.182;2023-11-21T01:41:16;8.02;97.44
75022;SHT31;63583;49.976;20.182;2023-11-21T01:43:42;8.05;97.12
75022;SHT31;63583;49.976;20.182;2023-11-21T01:46:08;7.98;97.36
75022;SHT31;63583;49.976;20.182;2023-11-21T01:48:34;8.05;97.41
75022;SHT31;63583;49.976;20.182;2023-11-21T01:51:01;8.05;96.66
75022;SHT31;63583;49.976;20.182;2023-11-21T01:53:27;8.06;96.57
75022;SHT31;63583;49.976;20.182;2023-11-21T01:55:55;7.98;96.82
75022;SHT31;63583;49.976;20.182;2023-11-21T01:58:21;8.06;96.65
75022;SHT31;63583;49.976;20.182;2023-11-21T02:00:47;7.99;96.77
75022;SHT31;63583;49.976;20.182;2023-11-21T02:03:16;7.99;96.37
75022;SHT31;63583;49.976;20.182;2023-11-21T02:05:43;8.05;96.49
75022;SHT31;63583;49.976;20.182;2023-11-21T02:08:08;8.02;96.81
75022;SHT31;63583;49.976;20.182;2023-11-21T02:10:35;8.01;96.91
75022;SHT31;63583;49.976;20.182;2023-11-21T02:13:02;7.94;97.43
75022;SHT31;63583;49.976;20.182;2023-11-21T02:15:29;7.95;97.54
75022;SHT31;63583;49.976;20.182;2023-11-21T02:17:57;8.02;97.47
75022;SHT31;63583;49.976;20.182;2023-11-21T02:20:24;7.96;97.40
75022;SHT31;63583;49.976;20.182;2023-11-21T02:22:52;7.98;97.14
75022;SHT31;63583;49.976;20.182;2023-11-21T02:25:27;8.01;96.85
75022;SHT31;63583;49.976;20.182;2023-11-21T02:27:54;8.07;96.60
75022;SHT31;63583;49.976;20.182;2023-11-21T02:30:23;8.09;95.97
75022;SHT31;63583;49.976;20.182;2023-11-21T02:32:51;8.01;96.15
75022;SHT31;63583;49.976;20.182;2023-11-21T02:35:19;8.05;95.55
75022;SHT31;63583;49.976;20.182;2023-11-21T02:37:48;8.05;95.66
75022;SHT31;63583;49.976;20.182;2023-11-21T02:40:15;8.13;95.04
75022;SHT31;63583;49.976;20.182;2023-11-21T02:42:47;8.06;94.80
75022;SHT31;63583;49.976;20.182;2023-11-21T02:45:15;8.01;95.57
75022;SHT31;63583;49.976;20.182;2023-11-21T02:47:42;8.01;95.46
75022;SHT31;63583;49.976;20.182;2023-11-21T02:50:09;7.98;95.57
75022;SHT31;63583;49.976;20.182;2023-11-21T02:52:38;8.01;95.05
75022;SHT31;63583;49.976;20.182;2023-11-21T02:55:04;8.02;94.97
75022;SHT31;63583;49.976;20.182;2023-11-21T02:57:30;8.05;94.60
75022;SHT31;63583;49.976;20.182;2023-11-21T02:59:56;8.06;93.69
75022;SHT31;63583;49.976;20.182;2023-11-21T03:02:22;7.99;93.90
75022;SHT31;63583;49.976;20.182;2023-11-21T03:04:48;8.05;94.23
75022;SHT31;63583;49.976;20.182;2023-11-21T03:07:15;8.09;94.21
75022;SHT31;63583;49.976;20.182;2023-11-21T03:09:41;8.02;94.25
75022;SHT31;63583;49.976;20.182;2023-11-21T03:12:07;8.06;94.15
75022;SHT31;63583;49.976;20.182;2023-11-21T03:14:34;8.09;94.29
75022;SHT31;63583;49.976;20.182;2023-11-21T03:17:00;8.06;94.64
75022;SHT31;63583;49.976;20.182;2023-11-21T03:19:26;8.09;94.43
75022;SHT31;63583;49.976;20.182;2023-11-21T03:21:51;8.05;94.41
75022;SHT31;63583;49.976;20.182;2023-11-21T03:24:19;8.03;94.53
75022;SHT31;63583;49.976;20.182;2023-11-21T03:26:45;8.03;94.34
75022;SHT31;63583;49.976;20.182;2023-11-21T03:29:12;8.02;93.61
75022;SHT31;63583;49.976;20.182;2023-11-21T03:31:38;8.06;92.54
75022;SHT31;63583;49.976;20.182;2023-11-21T03:34:04;8.02;93.03
75022;SHT31;63583;49.976;20.182;2023-11-21T03:36:30;8.01;92.96
75022;SHT31;63583;49.976;20.182;2023-11-21T03:38:56;7.98;92.61
75022;SHT31;63583;49.976;20.182;2023-11-21T03:41:22;8.01;93.24
75022;SHT31;63583;49.976;20.182;2023-11-21T03:43:47;7.96;92.78
75022;SHT31;63583;49.976;20.182;2023-11-21T03:46:13;7.98;93.20
75022;SHT31;63583;49.976;20.182;2023-11-21T03:48:39;7.99;93.13
75022;SHT31;63583;49.976;20.182;2023-11-21T03:51:05;7.99;92.50
75022;SHT31;63583;49.976;20.182;2023-11-21T03:53:31;8.02;92.72
75022;SHT31;63583;49.976;20.182;2023-11-21T03:55:57;7.98;93.02
75022;SHT31;63583;49.976;20.182;2023-11-21T03:58:23;7.99;92.94
75022;SHT31;63583;49.976;20.182;2023-11-21T04:00:49;7.96;93.26
75022;SHT31;63583;49.976;20.182;2023-11-21T04:03:15;8.02;92.51
75022;SHT31;63583;49.976;20.182;2023-11-21T04:05:40;7.96;92.57
75022;SHT31;63583;49.976;20.182;2023-11-21T04:08:07;7.99;92.19
75022;SHT31;63583;49.976;20.182;2023-11-21T04:10:32;7.94;92.77
75022;SHT31;63583;49.976;20.182;2023-11-21T04:12:58;7.92;92.50
75022;SHT31;63583;49.976;20.182;2023-11-21T04:15:25;7.89;92.81
75022;SHT31;63583;49.976;20.182;2023-11-21T04:17:52;7.91;92.40
75022;SHT31;63583;49.976;20.182;2023-11-21T04:20:17;7.94;92.65
75022;SHT31;63583;49.976;20.182;2023-11-21T04:22:44;7.94;92.34
75022;SHT31;63583;49.976;20.182;2023-11-21T04:25:10;7.86;92.65
75022;SHT31;63583;49.976;20.182;2023-11-21T04:27:39;7.86;92.59
75022;SHT31;63583;49.976;20.182;2023-11-21T04:30:05;7.81;92.89
75022;SHT31;63583;49.976;20.182;2023-11-21T04:32:31;7.88;92.40
75022;SHT31;63583;49.976;20.182;2023-11-21T04:34:57;7.88;92.51
75022;SHT31;63583;49.976;20.182;2023-11-21T04:37:23;7.86;92.47
75022;SHT31;63583;49.976;20.182;2023-11-21T04:39:49;7.86;92.57
75022;SHT31;63583;49.976;20.182;2023-11-21T04:42:15;7.88;92.42
75022;SHT31;63583;49.976;20.182;2023-11-21T04:44:41;7.84;92.53
75022;SHT31;63583;49.976;20.182;2023-11-21T04:47:07;7.82;92.81
75022;SHT31;63583;49.976;20.182;2023-11-21T04:49:33;7.91;92.47
75022;SHT31;63583;49.976;20.182;2023-11-21T04:51:59;7.84;92.23
75022;SHT31;63583;49.976;20.182;2023-11-21T04:54:25;7.88;92.34
75022;SHT31;63583;49.976;20.182;2023-11-21T04:56:51;7.85;92.33
75022;SHT31;63583;49.976;20.182;2023-11-21T04:59:17;7.88;92.56
75022;SHT31;63583;49.976;20.182;2023-11-21T05:01:43;7.96;91.85
75022;SHT31;63583;49.976;20.182;2023-11-21T05:04:09;7.94;91.89
75022;SHT31;63583;49.976;20.182;2023-11-21T05:06:35;7.84;92.72
75022;SHT31;63583;49.976;20.182;2023-11-21T05:09:00;7.84;92.71
75022;SHT31;63583;49.976;20.182;2023-11-21T05:11:27;7.89;92.65
75022;SHT31;63583;49.976;20.182;2023-11-21T05:13:54;7.82;92.99
75022;SHT31;63583;49.976;20.182;2023-11-21T05:16:22;7.84;93.14
75022;SHT31;63583;49.976;20.182;2023-11-21T05:18:48;7.81;93.37
75022;SHT31;63583;49.976;20.182;2023-11-21T05:21:16;7.84;93.17
75022;SHT31;63583;49.976;20.182;2023-11-21T05:23:41;7.71;94.07
75022;SHT31;63583;49.976;20.182;2023-11-21T05:26:07;7.68;94.28
75022;SHT31;63583;49.976;20.182;2023-11-21T05:28:33;7.67;94.36
75022;SHT31;63583;49.976;20.182;2023-11-21T05:30:59;7.61;94.74
75022;SHT31;63583;49.976;20.182;2023-11-21T05:33:25;7.56;95.15
75022;SHT31;63583;49.976;20.182;2023-11-21T05:35:51;7.56;94.94
75022;SHT31;63583;49.976;20.182;2023-11-21T05:38:16;7.56;94.92
75022;SHT31;63583;49.976;20.182;2023-11-21T05:40:42;7.58;95.20
75022;SHT31;63583;49.976;20.182;2023-11-21T05:43:09;7.60;94.79
75022;SHT31;63583;49.976;20.182;2023-11-21T05:45:35;7.54;95.15
75022;SHT31;63583;49.976;20.182;2023-11-21T05:48:00;7.57;94.98
75022;SHT31;63583;49.976;20.182;2023-11-21T05:50:26;7.53;94.92
75022;SHT31;63583;49.976;20.182;2023-11-21T05:52:52;7.65;94.73
75022;SHT31;63583;49.976;20.182;2023-11-21T05:55:18;7.51;95.23
75022;SHT31;63583;49.976;20.182;2023-11-21T05:57:46;7.60;95.09
75022;SHT31;63583;49.976;20.182;2023-11-21T06:00:13;7.57;95.46
75022;SHT31;63583;49.976;20.182;2023-11-21T06:02:43;7.61;95.50
75022;SHT31;63583;49.976;20.182;2023-11-21T06:05:10;7.50;96.04
75022;SHT31;63583;49.976;20.182;2023-11-21T06:07:37;7.48;95.78
75022;SHT31;63583;49.976;20.182;2023-11-21T06:10:04;7.56;96.29
75022;SHT31;63583;49.976;20.182;2023-11-21T06:12:37;7.47;96.45
75022;SHT31;63583;49.976;20.182;2023-11-21T06:15:04;7.34;97.18
75022;SHT31;63583;49.976;20.182;2023-11-21T06:17:34;7.38;97.32
75022;SHT31;63583;49.976;20.182;2023-11-21T06:20:04;7.38;97.51
75022;SHT31;63583;49.976;20.182;2023-11-21T06:22:41;7.36;97.45
75022;SHT31;63583;49.976;20.182;2023-11-21T06:25:08;7.40;97.64
75022;SHT31;63583;49.976;20.182;2023-11-21T06:27:39;7.40;97.40
75022;SHT31;63583;49.976;20.182;2023-11-21T06:30:06;7.43;97.48
75022;SHT31;63583;49.976;20.182;2023-11-21T06:32:32;7.38;97.41
75022;SHT31;63583;49.976;20.182;2023-11-21T06:34:58;7.42;97.42
75022;SHT31;63583;49.976;20.182;2023-11-21T06:37:28;7.47;97.39
75022;SHT31;63583;49.976;20.182;2023-11-21T06:39:54;7.42;97.67
75022;SHT31;63583;49.976;20.182;2023-11-21T06:42:22;7.36;97.95
75022;SHT31;63583;49.976;20.182;2023-11-21T06:44:49;7.42;98.03
75022;SHT31;63583;49.976;20.182;2023-11-21T06:47:17;7.44;97.72
75022;SHT31;63583;49.976;20.182;2023-11-21T06:49:43;7.38;98.05
75022;SHT31;63583;49.976;20.182;2023-11-21T06:52:09;7.33;97.97
75022;SHT31;63583;49.976;20.182;2023-11-21T06:54:36;7.43;97.68
75022;SHT31;63583;49.976;20.182;2023-11-21T06:57:02;7.42;97.62
75022;SHT31;63583;49.976;20.182;2023-11-21T06:59:28;7.58;97.15
75022;SHT31;63583;49.976;20.182;2023-11-21T07:01:54;7.57;96.60
75022;SHT31;63583;49.976;20.182;2023-11-21T07:04:20;7.61;96.44
75022;SHT31;63583;49.976;20.182;2023-11-21T07:06:46;7.68;96.29
75022;SHT31;63583;49.976;20.182;2023-11-21T07:09:12;7.65;95.90
75022;SHT31;63583;49.976;20.182;2023-11-21T07:11:38;7.60;95.99
75022;SHT31;63583;49.976;20.182;2023-11-21T07:14:04;7.60;96.07
75022;SHT31;63583;49.976;20.182;2023-11-21T07:16:37;7.50;96.45
75022;SHT31;63583;49.976;20.182;2023-11-21T07:19:04;7.54;95.92
75022;SHT31;63583;49.976;20.182;2023-11-21T07:21:33;7.58;95.77
75022;SHT31;63583;49.976;20.182;2023-11-21T07:24:03;7.56;95.78
75022;SHT31;63583;49.976;20.182;2023-11-21T07:26:30;7.67;95.61
75022;SHT31;63583;49.976;20.182;2023-11-21T07:28:56;7.58;95.86
75022;SHT31;63583;49.976;20.182;2023-11-21T07:31:22;7.65;95.86
75022;SHT31;63583;49.976;20.182;2023-11-21T07:33:49;7.61;95.42
75022;SHT31;63583;49.976;20.182;2023-11-21T07:36:17;7.61;95.87
75022;SHT31;63583;49.976;20.182;2023-11-21T07:38:49;7.60;95.92
75022;SHT31;63583;49.976;20.182;2023-11-21T07:41:15;7.64;95.59
75022;SHT31;63583;49.976;20.182;2023-11-21T07:43:42;7.60;95.91
75022;SHT31;63583;49.976;20.182;2023-11-21T07:46:08;7.60;95.85
75022;SHT31;63583;49.976;20.182;2023-11-21T07:48:34;7.57;95.94
75022;SHT31;63583;49.976;20.182;2023-11-21T07:51:01;7.57;96.27
75022;SHT31;63583;49.976;20.182;2023-11-21T07:53:29;7.77;95.91
75022;SHT31;63583;49.976;20.182;2023-11-21T07:55:56;7.70;95.46
75022;SHT31;63583;49.976;20.182;2023-11-21T07:58:23;7.78;95.30
75022;SHT31;63583;49.976;20.182;2023-11-21T08:00:49;7.61;95.94
75022;SHT31;63583;49.976;20.182;2023-11-21T08:03:16;7.64;95.85
75022;SHT31;63583;49.976;20.182;2023-11-21T08:05:42;7.71;95.56
75022;SHT31;63583;49.976;20.182;2023-11-21T08:08:08;7.73;95.62
75022;SHT31;63583;49.976;20.182;2023-11-21T08:10:34;7.73;95.84
75022;SHT31;63583;49.976;20.182;2023-11-21T08:13:02;7.64;96.47
75022;SHT31;63583;49.976;20.182;2023-11-21T08:15:29;7.71;96.15
75022;SHT31;63583;49.976;20.182;2023-11-21T08:17:58;7.71;96.21
75022;SHT31;63583;49.976;20.182;2023-11-21T08:20:24;7.60;96.31
75022;SHT31;63583;49.976;20.182;2023-11-21T08:22:51;7.65;96.20
75022;SHT31;63583;49.976;20.182;2023-11-21T08:25:18;7.64;96.12
75022;SHT31;63583;49.976;20.182;2023-11-21T08:27:46;7.60;96.16
75022;SHT31;63583;49.976;20.182;2023-11-21T08:30:12;7.60;96.28
75022;SHT31;63583;49.976;20.182;2023-11-21T08:32:40;7.78;95.62
75022;SHT31;63583;49.976;20.182;2023-11-21T08:35:07;7.74;95.75
75022;SHT31;63583;49.976;20.182;2023-11-21T08:37:34;7.70;96.03
75022;SHT31;63583;49.976;20.182;2023-11-21T08:40:04;7.73;95.74
75022;SHT31;63583;49.976;20.182;2023-11-21T08:42:35;7.77;95.55
75022;SHT31;63583;49.976;20.182;2023-11-21T08:45:00;7.68;96.16
75022;SHT31;63583;49.976;20.182;2023-11-21T08:47:27;7.79;95.78
75022;SHT31;63583;49.976;20.182;2023-11-21T08:49:53;7.82;95.28
75022;SHT31;63583;49.976;20.182;2023-11-21T08:52:19;7.75;95.91
75022;SHT31;63583;49.976;20.182;2023-11-21T08:54:51;7.91;95.31
75022;SHT31;63583;49.976;20.182;2023-11-21T08:57:25;7.91;95.04
75022;SHT31;63583;49.976;20.182;2023-11-21T08:59:51;7.78;95.23
75022;SHT31;63583;49.976;20.182;2023-11-21T09:02:21;7.84;95.32
75022;SHT31;63583;49.976;20.182;2023-11-21T09:04:50;7.75;95.73
75022;SHT31;63583;49.976;20.182;2023-11-21T09:07:19;7.81;95.06
75022;SHT31;63583;49.976;20.182;2023-11-21T09:09:48;7.78;95.72
75022;SHT31;63583;49.976;20.182;2023-11-21T09:12:15;7.81;95.46
75022;SHT31;63583;49.976;20.182;2023-11-21T09:14:42;7.68;95.91
75022;SHT31;63583;49.976;20.182;2023-11-21T09:17:09;7.71;96.13
75022;SHT31;63583;49.976;20.182;2023-11-21T09:19:38;7.74;96.30
75022;SHT31;63583;49.976;20.182;2023-11-21T09:22:04;7.82;96.29
75022;SHT31;63583;49.976;20.182;2023-11-21T09:24:31;7.79;95.76
75022;SHT31;63583;49.976;20.182;2023-11-21T09:26:58;7.85;96.22
75022;SHT31;63583;49.976;20.182;2023-11-21T09:29:23;7.86;95.72
75022;SHT31;63583;49.976;20.182;2023-11-21T09:31:49;7.85;95.74
75022;SHT31;63583;49.976;20.182;2023-11-21T09:34:17;7.94;95.68
75022;SHT31;63583;49.976;20.182;2023-11-21T09:36:46;8.03;95.07
75022;SHT31;63583;49.976;20.182;2023-11-21T09:39:12;7.98;95.63
75022;SHT31;63583;49.976;20.182;2023-11-21T09:41:52;7.91;95.29
75022;SHT31;63583;49.976;20.182;2023-11-21T09:47:17;8.12;94.99
75022;SHT31;63583;49.976;20.182;2023-11-21T09:49:47;8.07;95.16
75022;SHT31;63583;49.976;20.182;2023-11-21T09:52:27;8.10;95.56
75022;SHT31;63583;49.976;20.182;2023-11-21T09:54:55;8.22;94.27
75022;SHT31;63583;49.976;20.182;2023-11-21T09:57:24;8.12;94.84
75022;SHT31;63583;49.976;20.182;2023-11-21T09:59:51;8.13;94.83
75022;SHT31;63583;49.976;20.182;2023-11-21T10:02:26;8.16;94.45
75022;SHT31;63583;49.976;20.182;2023-11-21T10:04:54;8.16;94.27
75022;SHT31;63583;49.976;20.182;2023-11-21T10:07:20;8.16;94.74
75022;SHT31;63583;49.976;20.182;2023-11-21T10:09:47;8.23;93.85
75022;SHT31;63583;49.976;20.182;2023-11-21T10:12:16;8.23;94.25
75022;SHT31;63583;49.976;20.182;2023-11-21T10:14:42;8.21;94.27
75022;SHT31;63583;49.976;20.182;2023-11-21T10:17:10;8.21;94.04
75022;SHT31;63583;49.976;20.182;2023-11-21T10:19:39;8.05;94.37
75022;SHT31;63583;49.976;20.182;2023-11-21T10:22:05;8.12;94.40
75022;SHT31;63583;49.976;20.182;2023-11-21T10:24:33;8.09;94.78
75022;SHT31;63583;49.976;20.182;2023-11-21T10:26:59;8.10;93.75
75022;SHT31;63583;49.976;20.182;2023-11-21T10:29:30;8.21;93.86
75022;SHT31;63583;49.976;20.182;2023-11-21T10:31:56;8.25;93.08
75022;SHT31;63583;49.976;20.182;2023-11-21T10:34:24;8.12;94.20
75022;SHT31;63583;49.976;20.182;2023-11-21T10:36:50;8.26;94.26
75022;SHT31;63583;49.976;20.182;2023-11-21T10:39:20;8.33;93.37
75022;SHT31;63583;49.976;20.182;2023-11-21T10:41:46;8.22;93.32
75022;SHT31;63583;49.976;20.182;2023-11-21T10:44:16;8.33;93.72
75022;SHT31;63583;49.976;20.182;2023-11-21T10:46:50;8.40;93.71
75022;SHT31;63583;49.976;20.182;2023-11-21T10:49:19;8.40;93.23
75022;SHT31;63583;49.976;20.182;2023-11-21T10:51:46;8.33;93.62
75022;SHT31;63583;49.976;20.182;2023-11-21T10:54:18;8.34;93.34
75022;SHT31;63583;49.976;20.182;2023-11-21T10:56:45;8.44;92.77
75022;SHT31;63583;49.976;20.182;2023-11-21T10:59:11;8.50;92.50
75022;SHT31;63583;49.976;20.182;2023-11-21T11:01:42;8.51;92.26
75022;SHT31;63583;49.976;20.182;2023-11-21T11:04:09;8.44;92.37
75022;SHT31;63583;49.976;20.182;2023-11-21T11:06:44;8.44;93.03
75022;SHT31;63583;49.976;20.182;2023-11-21T11:09:13;8.43;91.99
75022;SHT31;63583;49.976;20.182;2023-11-21T11:11:40;8.49;92.97
75022;SHT31;63583;49.976;20.182;2023-11-21T11:14:10;8.54;92.55
75022;SHT31;63583;49.976;20.182;2023-11-21T11:16:38;8.46;92.12
75022;SHT31;63583;49.976;20.182;2023-11-21T11:19:07;8.44;92.12
75022;SHT31;63583;49.976;20.182;2023-11-21T11:24:26;8.57;92.69
75022;SHT31;63583;49.976;20.182;2023-11-21T11:27:11;8.59;92.58
75022;SHT31;63583;49.976;20.182;2023-11-21T11:33:04;8.60;92.65
75022;SHT31;63583;49.976;20.182;2023-11-21T11:38:17;8.56;91.11
75022;SHT31;63583;49.976;20.182;2023-11-21T11:40:46;8.59;91.61
75022;SHT31;63583;49.976;20.182;2023-11-21T11:43:13;8.46;91.69
75022;SHT31;63583;49.976;20.182;2023-11-21T11:45:39;8.54;90.95
75022;SHT31;63583;49.976;20.182;2023-11-21T11:48:08;8.30;91.86
75022;SHT31;63583;49.976;20.182;2023-11-21T11:50:42;8.42;91.88
75022;SHT31;63583;49.976;20.182;2023-11-21T11:53:26;8.43;92.05
75022;SHT31;63583;49.976;20.182;2023-11-21T11:56:30;8.46;91.47
75022;SHT31;63583;49.976;20.182;2023-11-21T11:59:01;8.43;92.20
75022;SHT31;63583;49.976;20.182;2023-11-21T12:01:33;8.39;92.07
75022;SHT31;63583;49.976;20.182;2023-11-21T12:06:43;8.39;90.22
75022;SHT31;63583;49.976;20.182;2023-11-21T12:09:20;8.39;90.44
75022;SHT31;63583;49.976;20.182;2023-11-21T12:11:48;8.37;91.06
75022;SHT31;63583;49.976;20.182;2023-11-21T12:14:15;8.42;90.08
75022;SHT31;63583;49.976;20.182;2023-11-21T12:16:42;8.43;90.08
75022;SHT31;63583;49.976;20.182;2023-11-21T12:19:10;8.37;91.07
75022;SHT31;63583;49.976;20.182;2023-11-21T12:21:36;8.42;90.29
75022;SHT31;63583;49.976;20.182;2023-11-21T12:24:03;8.43;90.26
75022;SHT31;63583;49.976;20.182;2023-11-21T12:26:29;8.43;90.26
75022;SHT31;63583;49.976;20.182;2023-11-21T12:28:56;8.54;90.03
75022;SHT31;63583;49.976;20.182;2023-11-21T12:31:22;8.53;89.16
75022;SHT31;63583;49.976;20.182;2023-11-21T12:33:49;8.44;89.27
75022;SHT31;63583;49.976;20.182;2023-11-21T12:36:15;8.46;89.27
75022;SHT31;63583;49.976;20.182;2023-11-21T12:38:41;8.44;89.51
75022;SHT31;63583;49.976;20.182;2023-11-21T12:41:08;8.49;89.19
75022;SHT31;63583;49.976;20.182;2023-11-21T12:43:36;8.46;89.13
75022;SHT31;63583;49.976;20.182;2023-11-21T12:46:06;8.42;88.66
75022;SHT31;63583;49.976;20.182;2023-11-21T12:48:32;8.60;88.43
75022;SHT31;63583;49.976;20.182;2023-11-21T12:50:58;8.54;88.75
75022;SHT31;63583;49.976;20.182;2023-11-21T12:53:26;8.67;87.93
75022;SHT31;63583;49.976;20.182;2023-11-21T12:55:51;8.61;89.19
75022;SHT31;63583;49.976;20.182;2023-11-21T12:58:17;8.65;87.70
75022;SHT31;63583;49.976;20.182;2023-11-21T13:00:47;8.74;88.11
75022;SHT31;63583;49.976;20.182;2023-11-21T13:03:14;8.65;88.56
75022;SHT31;63583;49.976;20.182;2023-11-21T13:05:44;8.65;88.26
75022;SHT31;63583;49.976;20.182;2023-11-21T13:08:12;8.71;88.34
75022;SHT31;63583;49.976;20.182;2023-11-21T13:10:40;8.84;86.70
75022;SHT31;63583;49.976;20.182;2023-11-21T13:13:10;8.77;86.63
75022;SHT31;63583;49.976;20.182;2023-11-21T13:15:40;8.82;86.46
75022;SHT31;63583;49.976;20.182;2023-11-21T13:18:09;8.68;86.90
75022;SHT31;63583;49.976;20.182;2023-11-21T13:20:36;8.64;86.77
75022;SHT31;63583;49.976;20.182;2023-11-21T13:23:07;8.71;86.65
75022;SHT31;63583;49.976;20.182;2023-11-21T13:25:33;8.61;87.02
75022;SHT31;63583;49.976;20.182;2023-11-21T13:28:00;8.68;87.11
75022;SHT31;63583;49.976;20.182;2023-11-21T13:30:28;8.59;87.70
75022;SHT31;63583;49.976;20.182;2023-11-21T13:33:06;8.64;87.27
75022;SHT31;63583;49.976;20.182;2023-11-21T13:35:37;8.59;87.57
75022;SHT31;63583;49.976;20.182;2023-11-21T13:38:09;8.50;87.26
75022;SHT31;63583;49.976;20.182;2023-11-21T13:40:35;8.50;86.87
75022;SHT31;63583;49.976;20.182;2023-11-21T13:43:13;8.59;87.41
75022;SHT31;63583;49.976;20.182;2023-11-21T13:45:40;8.57;86.87
75022;SHT31;63583;49.976;20.182;2023-11-21T13:48:07;8.56;87.17
75022;SHT31;63583;49.976;20.182;2023-11-21T13:50:36;8.60;86.89
75022;SHT31;63583;49.976;20.182;2023-11-21T13:53:03;8.60;86.89
75022;SHT31;63583;49.976;20.182;2023-11-21T13:55:50;8.59;86.64
75022;SHT31;63583;49.976;20.182;2023-11-21T13:58:17;8.60;87.72
75022;SHT31;63583;49.976;20.182;2023-11-21T14:00:50;8.65;87.15
75022;SHT31;63583;49.976;20.182;2023-11-21T14:03:24;8.46;87.28
75022;SHT31;63583;49.976;20.182;2023-11-21T14:06:03;8.50;87.88
75022;SHT31;63583;49.976;20.182;2023-11-21T14:08:34;8.61;86.28
75022;SHT31;63583;49.976;20.182;2023-11-21T14:11:00;8.50;87.28
75022;SHT31;63583;49.976;20.182;2023-11-21T14:13:26;8.47;87.84
75022;SHT31;63583;49.976;20.182;2023-11-21T14:15:52;8.42;88.24
75022;SHT31;63583;49.976;20.182;2023-11-21T14:18:24;8.47;87.90
75022;SHT31;63583;49.976;20.182;2023-11-21T14:20:56;8.36;88.80
75022;SHT31;63583;49.976;20.182;2023-11-21T14:23:22;8.33;87.58
75022;SHT31;63583;49.976;20.182;2023-11-21T14:25:49;8.28;88.11
75022;SHT31;63583;49.976;20.182;2023-11-21T14:28:15;8.17;88.66
75022;SHT31;63583;49.976;20.182;2023-11-21T14:30:41;8.17;88.61
75022;SHT31;63583;49.976;20.182;2023-11-21T14:33:08;8.16;88.61
75022;SHT31;63583;49.976;20.182;2023-11-21T14:35:35;8.17;88.61
75022;SHT31;63583;49.976;20.182;2023-11-21T14:38:01;8.09;89.30
75022;SHT31;63583;49.976;20.182;2023-11-21T14:40:31;8.03;89.82
75022;SHT31;63583;49.976;20.182;2023-11-21T14:43:00;7.98;89.99
75022;SHT31;63583;49.976;20.182;2023-11-21T14:45:26;7.98;89.83
75022;SHT31;63583;49.976;20.182;2023-11-21T14:47:52;7.96;89.59
75022;SHT31;63583;49.976;20.182;2023-11-21T14:50:32;7.95;90.18
75022;SHT31;63583;49.976;20.182;2023-11-21T14:53:14;7.89;89.90
75022;SHT31;63583;49.976;20.182;2023-11-21T14:55:41;7.94;89.06
75022;SHT31;63583;49.976;20.182;2023-11-21T14:58:16;7.75;89.83
75022;SHT31;63583;49.976;20.182;2023-11-21T15:00:58;7.70;89.73
75022;SHT31;63583;49.976;20.182;2023-11-21T15:03:25;7.71;89.51
75022;SHT31;63583;49.976;20.182;2023-11-21T15:06:01;7.57;89.89
75022;SHT31;63583;49.976;20.182;2023-11-21T15:08:55;7.57;90.14
75022;SHT31;63583;49.976;20.182;2023-11-21T15:11:41;7.50;90.18
75022;SHT31;63583;49.976;20.182;2023-11-21T15:14:07;7.51;90.11
75022;SHT31;63583;49.976;20.182;2023-11-21T15:16:35;7.56;89.89
75022;SHT31;63583;49.976;20.182;2023-11-21T15:19:06;7.48;90.45
75022;SHT31;63583;49.976;20.182;2023-11-21T15:21:32;7.43;90.43
75022;SHT31;63583;49.976;20.182;2023-11-21T15:23:58;7.54;90.22
75022;SHT31;63583;49.976;20.182;2023-11-21T15:26:24;7.44;91.09
75022;SHT31;63583;49.976;20.182;2023-11-21T15:28:50;7.43;91.02
75022;SHT31;63583;49.976;20.182;2023-11-21T15:31:15;7.42;91.11
75022;SHT31;63583;49.976;20.182;2023-11-21T15:33:46;7.42;91.36
75022;SHT31;63583;49.976;20.182;2023-11-21T15:36:11;7.42;91.24
75022;SHT31;63583;49.976;20.182;2023-11-21T15:38:39;7.46;91.07
75022;SHT31;63583;49.976;20.182;2023-11-21T15:41:04;7.51;90.93
75022;SHT31;63583;49.976;20.182;2023-11-21T15:43:33;7.47;91.28
75022;SHT31;63583;49.976;20.182;2023-11-21T15:45:58;7.48;91.28
75022;SHT31;63583;49.976;20.182;2023-11-21T15:48:27;7.47;91.07